sensor_id;sensor_type;location;lat;lon;timestamp;P1;durP1;ratioP1;P2;durP2;ratioP2
27558;SDS011;15002;52.028;5.670;2023-09-12T00:02:07;60.40;;;39.25;;
27558;SDS011;15002;52.028;5.670;2023-09-12T00:04:32;57.75;;;39.40;;
27558;SDS011;15002;52.028;5.670;2023-09-12T00:06:58;55.08;;;37.17;;
27558;SDS011;15002;52.028;5.670;2023-09-12T00:09:23;55.47;;;38.28;;
27558;SDS011;15002;52.028;5.670;2023-09-12T00:11:49;53.85;;;37.90;;
27558;SDS011;15002;52.028;5.670;2023-09-12T00:14:15;61.90;;;39.00;;
27558;SDS011;15002;52.028;5.670;2023-09-12T00:16:42;58.38;;;39.58;;
27558;SDS011;15002;52.028;5.670;2023-09-12T00:19:08;56.65;;;38.33;;
27558;SDS011;15002;52.028;5.670;2023-09-12T00:21:33;54.13;;;37.22;;
27558;SDS011;15002;52.028;5.670;2023-09-12T00:23:59;56.95;;;38.90;;
27558;SDS011;15002;52.028;5.670;2023-09-12T00:26:24;55.30;;;37.67;;
27558;SDS011;15002;52.028;5.670;2023-09-12T00:28:50;53.58;;;37.08;;
27558;SDS011;15002;52.028;5.670;2023-09-12T00:31:16;55.60;;;37.20;;
27558;SDS011;15002;52.028;5.670;2023-09-12T00:33:41;56.25;;;38.72;;
27558;SDS011;15002;52.028;5.670;2023-09-12T00:36:07;54.25;;;37.15;;
27558;SDS011;15002;52.028;5.670;2023-09-12T00:38:33;55.72;;;36.28;;
27558;SDS011;15002;52.028;5.670;2023-09-12T00:40:58;54.22;;;37.55;;
27558;SDS011;15002;52.028;5.670;2023-09-12T00:43:24;53.97;;;37.08;;
27558;SDS011;15002;52.028;5.670;2023-09-12T00:45:49;58.25;;;38.45;;
27558;SDS011;15002;52.028;5.670;2023-09-12T00:48:15;57.13;;;38.85;;
27558;SDS011;15002;52.028;5.670;2023-09-12T00:50:43;56.08;;;38.75;;
27558;SDS011;15002;52.028;5.670;2023-09-12T00:53:09;55.72;;;38.65;;
27558;SDS011;15002;52.028;5.670;2023-09-12T00:55:35;56.65;;;38.25;;
27558;SDS011;15002;52.028;5.670;2023-09-12T00:58:04;53.80;;;37.55;;
27558;SDS011;15002;52.028;5.670;2023-09-12T01:00:29;55.38;;;37.38;;
27558;SDS011;15002;52.028;5.670;2023-09-12T01:02:55;57.45;;;37.13;;
27558;SDS011;15002;52.028;5.670;2023-09-12T01:05:21;49.67;;;34.50;;
27558;SDS011;15002;52.028;5.670;2023-09-12T01:07:47;52.55;;;36.70;;
27558;SDS011;15002;52.028;5.670;2023-09-12T01:10:13;51.38;;;35.45;;
27558;SDS011;15002;52.028;5.670;2023-09-12T01:12:39;51.38;;;35.38;;
27558;SDS011;15002;52.028;5.670;2023-09-12T01:15:05;49.88;;;34.70;;
27558;SDS011;15002;52.028;5.670;2023-09-12T01:17:38;49.25;;;34.85;;
27558;SDS011;15002;52.028;5.670;2023-09-12T01:20:04;50.30;;;35.38;;
27558;SDS011;15002;52.028;5.670;2023-09-12T01:28:30;54.25;;;35.83;;
27558;SDS011;15002;52.028;5.670;2023-09-12T01:31:00;56.73;;;37.60;;
27558;SDS011;15002;52.028;5.670;2023-09-12T01:33:27;52.17;;;36.72;;
27558;SDS011;15002;52.028;5.670;2023-09-12T01:35:54;48.65;;;36.08;;
27558;SDS011;15002;52.028;5.670;2023-09-12T01:38:19;52.97;;;37.30;;
27558;SDS011;15002;52.028;5.670;2023-09-12T01:40:48;52.35;;;35.70;;
27558;SDS011;15002;52.028;5.670;2023-09-12T01:43:17;50.85;;;34.67;;
27558;SDS011;15002;52.028;5.670;2023-09-12T01:45:44;51.75;;;35.40;;
27558;SDS011;15002;52.028;5.670;2023-09-12T01:48:12;54.28;;;34.70;;
27558;SDS011;15002;52.028;5.670;2023-09-12T01:50:41;49.63;;;35.28;;
27558;SDS011;15002;52.028;5.670;2023-09-12T01:53:07;51.00;;;35.55;;
27558;SDS011;15002;52.028;5.670;2023-09-12T01:55:33;53.17;;;35.83;;
27558;SDS011;15002;52.028;5.670;2023-09-12T01:58:00;50.88;;;35.80;;
27558;SDS011;15002;52.028;5.670;2023-09-12T02:00:27;53.30;;;35.38;;
27558;SDS011;15002;52.028;5.670;2023-09-12T02:02:53;53.28;;;35.42;;
27558;SDS011;15002;52.028;5.670;2023-09-12T02:05:19;51.83;;;35.83;;
27558;SDS011;15002;52.028;5.670;2023-09-12T02:07:47;53.95;;;36.17;;
27558;SDS011;15002;52.028;5.670;2023-09-12T02:10:13;50.70;;;35.47;;
27558;SDS011;15002;52.028;5.670;2023-09-12T02:12:39;50.35;;;35.88;;
27558;SDS011;15002;52.028;5.670;2023-09-12T02:15:05;53.45;;;36.40;;
27558;SDS011;15002;52.028;5.670;2023-09-12T02:17:31;52.10;;;35.80;;
27558;SDS011;15002;52.028;5.670;2023-09-12T02:19:57;54.80;;;35.60;;
27558;SDS011;15002;52.028;5.670;2023-09-12T02:22:23;55.83;;;37.05;;
27558;SDS011;15002;52.028;5.670;2023-09-12T02:24:49;53.97;;;35.22;;
27558;SDS011;15002;52.028;5.670;2023-09-12T02:27:15;51.97;;;35.60;;
27558;SDS011;15002;52.028;5.670;2023-09-12T02:29:41;51.40;;;35.67;;
27558;SDS011;15002;52.028;5.670;2023-09-12T02:32:07;55.10;;;34.67;;
27558;SDS011;15002;52.028;5.670;2023-09-12T02:34:33;49.92;;;35.60;;
27558;SDS011;15002;52.028;5.670;2023-09-12T02:36:59;51.58;;;34.88;;
27558;SDS011;15002;52.028;5.670;2023-09-12T02:39:25;53.25;;;34.97;;
27558;SDS011;15002;52.028;5.670;2023-09-12T02:41:51;55.53;;;34.67;;
27558;SDS011;15002;52.028;5.670;2023-09-12T02:44:16;52.45;;;34.58;;
27558;SDS011;15002;52.028;5.670;2023-09-12T02:46:42;49.13;;;33.28;;
27558;SDS011;15002;52.028;5.670;2023-09-12T02:49:07;52.80;;;34.42;;
27558;SDS011;15002;52.028;5.670;2023-09-12T02:51:33;50.15;;;33.05;;
27558;SDS011;15002;52.028;5.670;2023-09-12T02:53:59;51.00;;;32.30;;
27558;SDS011;15002;52.028;5.670;2023-09-12T02:56:24;50.00;;;33.55;;
27558;SDS011;15002;52.028;5.670;2023-09-12T02:58:50;47.90;;;32.55;;
27558;SDS011;15002;52.028;5.670;2023-09-12T03:01:19;47.75;;;32.13;;
27558;SDS011;15002;52.028;5.670;2023-09-12T03:03:45;51.80;;;33.35;;
27558;SDS011;15002;52.028;5.670;2023-09-12T03:06:12;46.67;;;30.45;;
27558;SDS011;15002;52.028;5.670;2023-09-12T03:08:39;49.17;;;32.00;;
27558;SDS011;15002;52.028;5.670;2023-09-12T03:11:05;46.10;;;31.98;;
27558;SDS011;15002;52.028;5.670;2023-09-12T03:13:32;48.80;;;33.00;;
27558;SDS011;15002;52.028;5.670;2023-09-12T03:15:59;48.13;;;32.47;;
27558;SDS011;15002;52.028;5.670;2023-09-12T03:18:25;45.08;;;32.20;;
27558;SDS011;15002;52.028;5.670;2023-09-12T03:20:50;47.60;;;30.85;;
27558;SDS011;15002;52.028;5.670;2023-09-12T03:23:16;49.38;;;33.08;;
27558;SDS011;15002;52.028;5.670;2023-09-12T03:25:42;45.85;;;32.25;;
27558;SDS011;15002;52.028;5.670;2023-09-12T03:28:07;49.35;;;33.85;;
27558;SDS011;15002;52.028;5.670;2023-09-12T03:30:33;53.10;;;34.33;;
27558;SDS011;15002;52.028;5.670;2023-09-12T03:33:00;54.50;;;35.47;;
27558;SDS011;15002;52.028;5.670;2023-09-12T03:35:26;60.92;;;36.65;;
27558;SDS011;15002;52.028;5.670;2023-09-12T03:37:53;62.58;;;36.42;;
27558;SDS011;15002;52.028;5.670;2023-09-12T03:40:18;60.95;;;36.53;;
27558;SDS011;15002;52.028;5.670;2023-09-12T03:42:44;66.38;;;37.47;;
27558;SDS011;15002;52.028;5.670;2023-09-12T03:45:10;59.83;;;37.20;;
27558;SDS011;15002;52.028;5.670;2023-09-12T03:47:36;58.28;;;36.38;;
27558;SDS011;15002;52.028;5.670;2023-09-12T03:50:02;53.50;;;35.70;;
27558;SDS011;15002;52.028;5.670;2023-09-12T03:52:28;52.22;;;35.35;;
27558;SDS011;15002;52.028;5.670;2023-09-12T03:54:54;51.13;;;36.10;;
27558;SDS011;15002;52.028;5.670;2023-09-12T03:57:20;50.97;;;35.33;;
27558;SDS011;15002;52.028;5.670;2023-09-12T03:59:45;52.80;;;35.55;;
27558;SDS011;15002;52.028;5.670;2023-09-12T04:02:11;52.78;;;35.15;;
27558;SDS011;15002;52.028;5.670;2023-09-12T04:04:37;48.50;;;33.10;;
27558;SDS011;15002;52.028;5.670;2023-09-12T04:07:03;47.17;;;33.75;;
27558;SDS011;15002;52.028;5.670;2023-09-12T04:09:29;46.03;;;31.98;;
27558;SDS011;15002;52.028;5.670;2023-09-12T04:11:55;47.85;;;32.78;;
27558;SDS011;15002;52.028;5.670;2023-09-12T04:14:21;46.55;;;32.83;;
27558;SDS011;15002;52.028;5.670;2023-09-12T04:16:47;45.08;;;31.88;;
27558;SDS011;15002;52.028;5.670;2023-09-12T04:19:13;47.35;;;32.22;;
27558;SDS011;15002;52.028;5.670;2023-09-12T04:21:39;41.28;;;30.63;;
27558;SDS011;15002;52.028;5.670;2023-09-12T04:24:05;42.40;;;31.02;;
27558;SDS011;15002;52.028;5.670;2023-09-12T04:26:31;42.55;;;30.45;;
27558;SDS011;15002;52.028;5.670;2023-09-12T04:28:57;40.72;;;29.88;;
27558;SDS011;15002;52.028;5.670;2023-09-12T04:31:23;44.78;;;31.77;;
27558;SDS011;15002;52.028;5.670;2023-09-12T04:33:52;41.53;;;30.30;;
27558;SDS011;15002;52.028;5.670;2023-09-12T04:36:18;40.03;;;29.85;;
27558;SDS011;15002;52.028;5.670;2023-09-12T04:38:45;42.75;;;30.52;;
27558;SDS011;15002;52.028;5.670;2023-09-12T04:41:11;42.55;;;30.83;;
27558;SDS011;15002;52.028;5.670;2023-09-12T04:43:40;41.03;;;31.10;;
27558;SDS011;15002;52.028;5.670;2023-09-12T04:46:06;40.30;;;29.83;;
27558;SDS011;15002;52.028;5.670;2023-09-12T04:48:32;42.08;;;30.58;;
27558;SDS011;15002;52.028;5.670;2023-09-12T04:50:58;42.20;;;29.60;;
27558;SDS011;15002;52.028;5.670;2023-09-12T04:53:23;42.03;;;30.05;;
27558;SDS011;15002;52.028;5.670;2023-09-12T04:55:51;39.20;;;29.52;;
27558;SDS011;15002;52.028;5.670;2023-09-12T04:58:18;43.70;;;30.98;;
27558;SDS011;15002;52.028;5.670;2023-09-12T05:00:43;42.70;;;30.13;;
27558;SDS011;15002;52.028;5.670;2023-09-12T05:03:10;41.58;;;31.08;;
27558;SDS011;15002;52.028;5.670;2023-09-12T05:05:36;45.92;;;31.65;;
27558;SDS011;15002;52.028;5.670;2023-09-12T05:08:01;45.05;;;31.00;;
27558;SDS011;15002;52.028;5.670;2023-09-12T05:10:27;43.20;;;29.15;;
27558;SDS011;15002;52.028;5.670;2023-09-12T05:12:53;37.35;;;28.35;;
27558;SDS011;15002;52.028;5.670;2023-09-12T05:15:18;39.70;;;28.05;;
27558;SDS011;15002;52.028;5.670;2023-09-12T05:17:44;41.80;;;27.48;;
27558;SDS011;15002;52.028;5.670;2023-09-12T05:20:10;42.58;;;29.20;;
27558;SDS011;15002;52.028;5.670;2023-09-12T05:22:35;44.47;;;30.10;;
27558;SDS011;15002;52.028;5.670;2023-09-12T05:25:01;41.75;;;30.23;;
27558;SDS011;15002;52.028;5.670;2023-09-12T05:27:27;45.67;;;31.25;;
27558;SDS011;15002;52.028;5.670;2023-09-12T05:29:52;44.75;;;32.28;;
27558;SDS011;15002;52.028;5.670;2023-09-12T05:32:18;43.33;;;32.13;;
27558;SDS011;15002;52.028;5.670;2023-09-12T05:34:43;45.95;;;32.30;;
27558;SDS011;15002;52.028;5.670;2023-09-12T05:37:10;52.70;;;33.58;;
27558;SDS011;15002;52.028;5.670;2023-09-12T05:39:36;48.08;;;34.00;;
27558;SDS011;15002;52.028;5.670;2023-09-12T05:42:01;48.85;;;34.30;;
27558;SDS011;15002;52.028;5.670;2023-09-12T05:44:27;50.78;;;34.03;;
27558;SDS011;15002;52.028;5.670;2023-09-12T05:46:53;47.45;;;34.10;;
27558;SDS011;15002;52.028;5.670;2023-09-12T05:49:19;51.83;;;34.63;;
27558;SDS011;15002;52.028;5.670;2023-09-12T05:51:44;59.05;;;37.53;;
27558;SDS011;15002;52.028;5.670;2023-09-12T05:54:10;58.30;;;37.40;;
27558;SDS011;15002;52.028;5.670;2023-09-12T05:56:38;54.47;;;36.78;;
27558;SDS011;15002;52.028;5.670;2023-09-12T05:59:05;57.58;;;37.20;;
27558;SDS011;15002;52.028;5.670;2023-09-12T06:01:31;57.95;;;36.97;;
27558;SDS011;15002;52.028;5.670;2023-09-12T06:03:56;59.50;;;38.15;;
27558;SDS011;15002;52.028;5.670;2023-09-12T06:06:22;56.80;;;36.90;;
27558;SDS011;15002;52.028;5.670;2023-09-12T06:08:48;59.58;;;37.78;;
27558;SDS011;15002;52.028;5.670;2023-09-12T06:11:13;58.17;;;36.53;;
27558;SDS011;15002;52.028;5.670;2023-09-12T06:13:39;59.78;;;38.10;;
27558;SDS011;15002;52.028;5.670;2023-09-12T06:16:05;57.63;;;36.78;;
27558;SDS011;15002;52.028;5.670;2023-09-12T06:18:34;62.47;;;36.75;;
27558;SDS011;15002;52.028;5.670;2023-09-12T06:21:00;55.92;;;37.53;;
27558;SDS011;15002;52.028;5.670;2023-09-12T06:23:30;60.63;;;37.80;;
27558;SDS011;15002;52.028;5.670;2023-09-12T06:25:55;59.30;;;37.22;;
27558;SDS011;15002;52.028;5.670;2023-09-12T06:28:28;56.47;;;38.05;;
27558;SDS011;15002;52.028;5.670;2023-09-12T06:30:55;64.50;;;39.42;;
27558;SDS011;15002;52.028;5.670;2023-09-12T06:33:22;63.85;;;38.58;;
27558;SDS011;15002;52.028;5.670;2023-09-12T06:35:48;63.40;;;39.75;;
27558;SDS011;15002;52.028;5.670;2023-09-12T06:38:15;65.80;;;40.78;;
27558;SDS011;15002;52.028;5.670;2023-09-12T06:40:42;65.60;;;39.95;;
27558;SDS011;15002;52.028;5.670;2023-09-12T06:43:08;69.45;;;40.88;;
27558;SDS011;15002;52.028;5.670;2023-09-12T06:45:34;64.53;;;39.97;;
27558;SDS011;15002;52.028;5.670;2023-09-12T06:48:05;70.47;;;40.35;;
27558;SDS011;15002;52.028;5.670;2023-09-12T06:50:31;65.68;;;40.75;;
27558;SDS011;15002;52.028;5.670;2023-09-12T06:52:57;70.70;;;42.92;;
27558;SDS011;15002;52.028;5.670;2023-09-12T06:55:22;67.10;;;42.25;;
27558;SDS011;15002;52.028;5.670;2023-09-12T06:57:49;69.57;;;42.75;;
27558;SDS011;15002;52.028;5.670;2023-09-12T07:00:14;74.60;;;43.00;;
27558;SDS011;15002;52.028;5.670;2023-09-12T07:02:41;67.63;;;42.00;;
27558;SDS011;15002;52.028;5.670;2023-09-12T07:05:07;67.85;;;41.15;;
27558;SDS011;15002;52.028;5.670;2023-09-12T07:07:33;71.82;;;42.95;;
27558;SDS011;15002;52.028;5.670;2023-09-12T07:09:59;71.20;;;42.45;;
27558;SDS011;15002;52.028;5.670;2023-09-12T07:12:25;67.15;;;41.13;;
27558;SDS011;15002;52.028;5.670;2023-09-12T07:14:51;68.97;;;42.08;;
27558;SDS011;15002;52.028;5.670;2023-09-12T07:17:17;70.75;;;42.58;;
27558;SDS011;15002;52.028;5.670;2023-09-12T07:19:43;68.88;;;41.75;;
27558;SDS011;15002;52.028;5.670;2023-09-12T07:22:08;68.47;;;42.83;;
27558;SDS011;15002;52.028;5.670;2023-09-12T07:24:34;69.28;;;42.25;;
27558;SDS011;15002;52.028;5.670;2023-09-12T07:27:00;68.20;;;40.33;;
27558;SDS011;15002;52.028;5.670;2023-09-12T07:29:25;68.18;;;40.70;;
27558;SDS011;15002;52.028;5.670;2023-09-12T07:31:52;66.03;;;40.42;;
27558;SDS011;15002;52.028;5.670;2023-09-12T07:34:19;69.28;;;41.83;;
27558;SDS011;15002;52.028;5.670;2023-09-12T07:36:45;68.50;;;41.30;;
27558;SDS011;15002;52.028;5.670;2023-09-12T07:39:11;63.38;;;39.85;;
27558;SDS011;15002;52.028;5.670;2023-09-12T07:41:37;59.80;;;37.45;;
27558;SDS011;15002;52.028;5.670;2023-09-12T07:44:02;65.22;;;39.35;;
27558;SDS011;15002;52.028;5.670;2023-09-12T07:46:30;63.78;;;40.33;;
27558;SDS011;15002;52.028;5.670;2023-09-12T07:48:55;59.28;;;37.95;;
27558;SDS011;15002;52.028;5.670;2023-09-12T07:51:21;60.85;;;39.03;;
27558;SDS011;15002;52.028;5.670;2023-09-12T07:53:48;59.45;;;38.15;;
27558;SDS011;15002;52.028;5.670;2023-09-12T07:56:13;63.92;;;40.03;;
27558;SDS011;15002;52.028;5.670;2023-09-12T07:58:39;65.55;;;40.45;;
27558;SDS011;15002;52.028;5.670;2023-09-12T08:01:05;64.72;;;39.20;;
27558;SDS011;15002;52.028;5.670;2023-09-12T08:03:34;59.40;;;38.95;;
27558;SDS011;15002;52.028;5.670;2023-09-12T08:06:01;62.90;;;39.83;;
27558;SDS011;15002;52.028;5.670;2023-09-12T08:08:27;64.47;;;39.65;;
27558;SDS011;15002;52.028;5.670;2023-09-12T08:10:53;56.60;;;37.17;;
27558;SDS011;15002;52.028;5.670;2023-09-12T08:13:19;56.53;;;35.78;;
27558;SDS011;15002;52.028;5.670;2023-09-12T08:15:45;52.20;;;35.28;;
27558;SDS011;15002;52.028;5.670;2023-09-12T08:18:10;56.67;;;37.00;;
27558;SDS011;15002;52.028;5.670;2023-09-12T08:20:36;56.95;;;36.60;;
27558;SDS011;15002;52.028;5.670;2023-09-12T08:23:03;51.28;;;34.40;;
27558;SDS011;15002;52.028;5.670;2023-09-12T08:25:29;53.05;;;34.95;;
27558;SDS011;15002;52.028;5.670;2023-09-12T08:27:54;50.30;;;34.15;;
27558;SDS011;15002;52.028;5.670;2023-09-12T08:30:20;51.08;;;33.85;;
27558;SDS011;15002;52.028;5.670;2023-09-12T08:32:46;47.72;;;31.40;;
27558;SDS011;15002;52.028;5.670;2023-09-12T08:35:12;48.53;;;31.80;;
27558;SDS011;15002;52.028;5.670;2023-09-12T08:37:42;47.40;;;33.70;;
27558;SDS011;15002;52.028;5.670;2023-09-12T08:40:08;44.72;;;32.95;;
27558;SDS011;15002;52.028;5.670;2023-09-12T08:42:44;45.60;;;31.88;;
27558;SDS011;15002;52.028;5.670;2023-09-12T08:45:17;45.92;;;31.75;;
27558;SDS011;15002;52.028;5.670;2023-09-12T08:47:44;45.03;;;31.02;;
27558;SDS011;15002;52.028;5.670;2023-09-12T08:50:14;41.58;;;31.00;;
27558;SDS011;15002;52.028;5.670;2023-09-12T08:52:41;45.85;;;30.38;;
27558;SDS011;15002;52.028;5.670;2023-09-12T08:55:08;44.85;;;30.38;;
27558;SDS011;15002;52.028;5.670;2023-09-12T08:57:38;39.08;;;28.75;;
27558;SDS011;15002;52.028;5.670;2023-09-12T09:00:06;42.38;;;27.70;;
27558;SDS011;15002;52.028;5.670;2023-09-12T09:02:42;36.80;;;27.00;;
27558;SDS011;15002;52.028;5.670;2023-09-12T09:05:09;33.72;;;24.05;;
27558;SDS011;15002;52.028;5.670;2023-09-12T09:07:42;30.73;;;22.00;;
27558;SDS011;15002;52.028;5.670;2023-09-12T09:10:15;31.77;;;22.15;;
27558;SDS011;15002;52.028;5.670;2023-09-12T09:12:43;30.38;;;21.35;;
27558;SDS011;15002;52.028;5.670;2023-09-12T09:15:29;25.15;;;19.02;;
27558;SDS011;15002;52.028;5.670;2023-09-12T09:17:56;24.85;;;17.70;;
27558;SDS011;15002;52.028;5.670;2023-09-12T09:20:26;29.33;;;19.45;;
27558;SDS011;15002;52.028;5.670;2023-09-12T09:23:03;22.10;;;16.00;;
27558;SDS011;15002;52.028;5.670;2023-09-12T09:25:36;27.05;;;19.13;;
27558;SDS011;15002;52.028;5.670;2023-09-12T09:28:04;23.73;;;18.13;;
27558;SDS011;15002;52.028;5.670;2023-09-12T09:33:10;21.38;;;15.57;;
27558;SDS011;15002;52.028;5.670;2023-09-12T09:35:36;20.67;;;13.35;;
27558;SDS011;15002;52.028;5.670;2023-09-12T09:38:04;21.20;;;15.27;;
27558;SDS011;15002;52.028;5.670;2023-09-12T09:40:31;19.83;;;16.10;;
27558;SDS011;15002;52.028;5.670;2023-09-12T09:42:59;16.58;;;13.77;;
27558;SDS011;15002;52.028;5.670;2023-09-12T09:45:29;17.30;;;12.40;;
27558;SDS011;15002;52.028;5.670;2023-09-12T09:48:03;18.13;;;12.38;;
27558;SDS011;15002;52.028;5.670;2023-09-12T09:50:33;17.85;;;13.20;;
27558;SDS011;15002;52.028;5.670;2023-09-12T09:53:00;14.73;;;12.32;;
27558;SDS011;15002;52.028;5.670;2023-09-12T09:55:26;16.48;;;14.05;;
27558;SDS011;15002;52.028;5.670;2023-09-12T09:57:52;16.80;;;12.73;;
27558;SDS011;15002;52.028;5.670;2023-09-12T10:00:19;20.05;;;13.45;;
27558;SDS011;15002;52.028;5.670;2023-09-12T10:02:47;17.83;;;12.93;;
27558;SDS011;15002;52.028;5.670;2023-09-12T10:05:16;16.63;;;12.93;;
27558;SDS011;15002;52.028;5.670;2023-09-12T10:07:42;24.08;;;16.35;;
27558;SDS011;15002;52.028;5.670;2023-09-12T10:10:14;25.25;;;17.23;;
27558;SDS011;15002;52.028;5.670;2023-09-12T10:12:53;24.90;;;17.25;;
27558;SDS011;15002;52.028;5.670;2023-09-12T10:15:22;22.30;;;16.65;;
27558;SDS011;15002;52.028;5.670;2023-09-12T10:17:51;30.00;;;20.02;;
27558;SDS011;15002;52.028;5.670;2023-09-12T10:20:42;31.75;;;19.42;;
27558;SDS011;15002;52.028;5.670;2023-09-12T10:23:15;24.40;;;17.13;;
27558;SDS011;15002;52.028;5.670;2023-09-12T10:25:48;26.25;;;18.40;;
27558;SDS011;15002;52.028;5.670;2023-09-12T10:28:15;28.05;;;17.95;;
27558;SDS011;15002;52.028;5.670;2023-09-12T10:30:43;29.08;;;19.20;;
27558;SDS011;15002;52.028;5.670;2023-09-12T10:33:10;25.38;;;18.02;;
27558;SDS011;15002;52.028;5.670;2023-09-12T10:35:38;27.92;;;19.20;;
27558;SDS011;15002;52.028;5.670;2023-09-12T10:38:04;27.58;;;18.80;;
27558;SDS011;15002;52.028;5.670;2023-09-12T10:40:33;24.48;;;18.92;;
27558;SDS011;15002;52.028;5.670;2023-09-12T10:43:01;24.98;;;17.05;;
27558;SDS011;15002;52.028;5.670;2023-09-12T10:45:31;24.30;;;15.60;;
27558;SDS011;15002;52.028;5.670;2023-09-12T10:47:58;24.02;;;16.38;;
27558;SDS011;15002;52.028;5.670;2023-09-12T10:50:23;24.48;;;15.80;;
27558;SDS011;15002;52.028;5.670;2023-09-12T10:52:49;28.77;;;18.80;;
27558;SDS011;15002;52.028;5.670;2023-09-12T10:55:16;28.92;;;18.30;;
27558;SDS011;15002;52.028;5.670;2023-09-12T10:58:04;24.80;;;15.50;;
27558;SDS011;15002;52.028;5.670;2023-09-12T11:00:32;21.92;;;14.65;;
27558;SDS011;15002;52.028;5.670;2023-09-12T11:02:58;29.65;;;20.95;;
27558;SDS011;15002;52.028;5.670;2023-09-12T11:05:52;30.50;;;19.52;;
27558;SDS011;15002;52.028;5.670;2023-09-12T11:08:19;26.73;;;18.38;;
27558;SDS011;15002;52.028;5.670;2023-09-12T11:11:16;31.67;;;18.95;;
27558;SDS011;15002;52.028;5.670;2023-09-12T11:14:09;25.13;;;17.02;;
27558;SDS011;15002;52.028;5.670;2023-09-12T11:16:35;26.10;;;16.80;;
27558;SDS011;15002;52.028;5.670;2023-09-12T11:19:14;23.38;;;16.33;;
27558;SDS011;15002;52.028;5.670;2023-09-12T11:21:47;29.55;;;18.80;;
27558;SDS011;15002;52.028;5.670;2023-09-12T11:24:17;27.88;;;19.67;;
27558;SDS011;15002;52.028;5.670;2023-09-12T11:26:57;28.17;;;18.23;;
27558;SDS011;15002;52.028;5.670;2023-09-12T11:29:34;22.38;;;16.50;;
27558;SDS011;15002;52.028;5.670;2023-09-12T11:32:01;23.98;;;16.58;;
27558;SDS011;15002;52.028;5.670;2023-09-12T11:34:29;22.92;;;17.23;;
27558;SDS011;15002;52.028;5.670;2023-09-12T11:37:22;24.92;;;16.77;;
27558;SDS011;15002;52.028;5.670;2023-09-12T11:39:52;31.60;;;19.13;;
27558;SDS011;15002;52.028;5.670;2023-09-12T11:42:18;29.30;;;20.52;;
27558;SDS011;15002;52.028;5.670;2023-09-12T11:44:44;31.60;;;20.08;;
27558;SDS011;15002;52.028;5.670;2023-09-12T11:47:10;28.60;;;19.25;;
27558;SDS011;15002;52.028;5.670;2023-09-12T11:49:37;30.02;;;18.95;;
27558;SDS011;15002;52.028;5.670;2023-09-12T11:52:12;25.80;;;17.73;;
27558;SDS011;15002;52.028;5.670;2023-09-12T11:54:40;26.92;;;19.48;;
27558;SDS011;15002;52.028;5.670;2023-09-12T11:57:09;24.33;;;17.20;;
27558;SDS011;15002;52.028;5.670;2023-09-12T11:59:37;26.13;;;18.10;;
27558;SDS011;15002;52.028;5.670;2023-09-12T12:02:10;22.52;;;16.73;;
27558;SDS011;15002;52.028;5.670;2023-09-12T12:04:36;23.70;;;16.73;;
27558;SDS011;15002;52.028;5.670;2023-09-12T12:07:02;23.33;;;16.40;;
27558;SDS011;15002;52.028;5.670;2023-09-12T12:09:29;21.25;;;14.68;;
27558;SDS011;15002;52.028;5.670;2023-09-12T12:11:55;26.90;;;19.17;;
27558;SDS011;15002;52.028;5.670;2023-09-12T12:14:25;27.63;;;19.27;;
27558;SDS011;15002;52.028;5.670;2023-09-12T12:16:51;25.63;;;15.98;;
27558;SDS011;15002;52.028;5.670;2023-09-12T12:19:17;27.42;;;17.15;;
27558;SDS011;15002;52.028;5.670;2023-09-12T12:21:43;26.30;;;16.95;;
27558;SDS011;15002;52.028;5.670;2023-09-12T12:24:10;25.17;;;18.27;;
27558;SDS011;15002;52.028;5.670;2023-09-12T12:26:40;28.42;;;19.38;;
27558;SDS011;15002;52.028;5.670;2023-09-12T12:29:08;23.98;;;18.75;;
27558;SDS011;15002;52.028;5.670;2023-09-12T12:31:35;23.02;;;16.05;;
27558;SDS011;15002;52.028;5.670;2023-09-12T12:34:01;26.92;;;18.55;;
27558;SDS011;15002;52.028;5.670;2023-09-12T12:36:26;25.02;;;17.08;;
27558;SDS011;15002;52.028;5.670;2023-09-12T12:38:52;24.40;;;17.35;;
27558;SDS011;15002;52.028;5.670;2023-09-12T12:41:28;26.23;;;16.63;;
27558;SDS011;15002;52.028;5.670;2023-09-12T12:43:57;22.42;;;16.80;;
27558;SDS011;15002;52.028;5.670;2023-09-12T12:46:27;19.65;;;16.00;;
27558;SDS011;15002;52.028;5.670;2023-09-12T12:48:53;22.65;;;16.63;;
27558;SDS011;15002;52.028;5.670;2023-09-12T12:53:48;30.10;;;18.08;;
27558;SDS011;15002;52.028;5.670;2023-09-12T12:56:22;22.63;;;16.83;;
27558;SDS011;15002;52.028;5.670;2023-09-12T12:58:52;21.73;;;16.33;;
27558;SDS011;15002;52.028;5.670;2023-09-12T13:01:23;21.98;;;16.42;;
27558;SDS011;15002;52.028;5.670;2023-09-12T13:03:49;21.15;;;15.02;;
27558;SDS011;15002;52.028;5.670;2023-09-12T13:06:15;19.33;;;12.93;;
27558;SDS011;15002;52.028;5.670;2023-09-12T13:08:45;17.92;;;11.90;;
27558;SDS011;15002;52.028;5.670;2023-09-12T13:11:13;21.77;;;13.07;;
27558;SDS011;15002;52.028;5.670;2023-09-12T13:13:40;19.40;;;13.73;;
27558;SDS011;15002;52.028;5.670;2023-09-12T13:16:07;18.40;;;12.15;;
27558;SDS011;15002;52.028;5.670;2023-09-12T13:18:35;18.85;;;13.45;;
27558;SDS011;15002;52.028;5.670;2023-09-12T13:21:02;18.20;;;12.10;;
27558;SDS011;15002;52.028;5.670;2023-09-12T13:23:28;20.10;;;12.48;;
27558;SDS011;15002;52.028;5.670;2023-09-12T13:25:54;15.07;;;11.57;;
27558;SDS011;15002;52.028;5.670;2023-09-12T13:28:20;17.65;;;12.35;;
27558;SDS011;15002;52.028;5.670;2023-09-12T13:30:50;16.50;;;11.25;;
27558;SDS011;15002;52.028;5.670;2023-09-12T13:33:16;17.63;;;14.02;;
27558;SDS011;15002;52.028;5.670;2023-09-12T13:35:42;25.15;;;16.55;;
27558;SDS011;15002;52.028;5.670;2023-09-12T13:38:07;19.38;;;13.93;;
27558;SDS011;15002;52.028;5.670;2023-09-12T13:40:37;20.02;;;14.50;;
27558;SDS011;15002;52.028;5.670;2023-09-12T13:43:04;19.65;;;12.95;;
27558;SDS011;15002;52.028;5.670;2023-09-12T13:45:30;16.20;;;11.52;;
27558;SDS011;15002;52.028;5.670;2023-09-12T13:47:56;17.75;;;13.15;;
27558;SDS011;15002;52.028;5.670;2023-09-12T13:50:23;12.55;;;9.13;;
27558;SDS011;15002;52.028;5.670;2023-09-12T13:52:49;11.43;;;8.25;;
27558;SDS011;15002;52.028;5.670;2023-09-12T13:55:15;10.30;;;6.25;;
27558;SDS011;15002;52.028;5.670;2023-09-12T13:57:41;8.32;;;6.28;;
27558;SDS011;15002;52.028;5.670;2023-09-12T14:00:07;7.80;;;5.90;;
27558;SDS011;15002;52.028;5.670;2023-09-12T14:02:33;7.70;;;5.60;;
27558;SDS011;15002;52.028;5.670;2023-09-12T14:04:59;5.78;;;4.82;;
27558;SDS011;15002;52.028;5.670;2023-09-12T14:07:25;7.00;;;4.70;;
27558;SDS011;15002;52.028;5.670;2023-09-12T14:09:51;10.00;;;5.57;;
27558;SDS011;15002;52.028;5.670;2023-09-12T14:12:20;11.07;;;7.18;;
27558;SDS011;15002;52.028;5.670;2023-09-12T14:14:49;7.93;;;6.60;;
27558;SDS011;15002;52.028;5.670;2023-09-12T14:17:15;9.30;;;6.20;;
27558;SDS011;15002;52.028;5.670;2023-09-12T14:19:40;7.68;;;5.72;;
27558;SDS011;15002;52.028;5.670;2023-09-12T14:22:06;7.50;;;6.03;;
27558;SDS011;15002;52.028;5.670;2023-09-12T14:24:32;7.50;;;5.95;;
27558;SDS011;15002;52.028;5.670;2023-09-12T14:26:57;8.70;;;5.97;;
27558;SDS011;15002;52.028;5.670;2023-09-12T14:29:23;9.82;;;5.68;;
27558;SDS011;15002;52.028;5.670;2023-09-12T14:31:52;8.52;;;5.00;;
27558;SDS011;15002;52.028;5.670;2023-09-12T14:34:23;6.68;;;4.60;;
27558;SDS011;15002;52.028;5.670;2023-09-12T14:36:53;6.65;;;5.38;;